American Falls, Idaho
Current Conditions -  °F | °C
As of 7:53 PM on Wednesday 22 Oct 2014 (Local Time) from KPIH Reporting Station
Broken Clouds Broken Clouds  
Wind Chill: 51°   Ceiling: 9500
Heat Index: 51°   Visibility: 10mi
Dew Point: 25°   Wind: 5mph
Humidity: 36%   Direction: 120°ESE
Pressure: 30.15"   Gusts: NA
Location:  42.79°N, 112.85°W
Report Text: KPIH 230153Z 12004KT 10SM BKN095 11/M04 A3015 RMK AO2 SLP219 T01061039
Loading
Personal Weather Stations






























Interactive Weather Map New forecast layout! Learn more

10-Day Weather Forecast

Advertisements
Track Severe Weather on mobile